Time;durP1;ratioP1;P1;durP2;ratioP2;P2;SDS_P1;SDS_P2;PMS_P1;PMS_P2;Temp;Humidity;BMP_temperature;BMP_pressure;BME280_temperature;BME280_humidity;BME280_pressure;Samples;Min_cycle;Max_cycle;Signal;HPM_P1;HPM_P2
2020/12/31 00:01:40;;;;;;;19.33;17.10;;;;;;;2.68;84.72;99282.25;5049853;28;20485;-78
2020/12/31 00:04:05;;;;;;;19.70;16.00;;;;;;;2.61;85.30;99287.22;5050431;28;20498;-76
2020/12/31 00:06:32;;;;;;;18.37;16.83;;;;;;;2.50;85.99;99284.91;5050124;28;20185;-76
2020/12/31 00:08:58;;;;;;;17.97;16.50;;;;;;;2.50;85.84;99282.22;5050612;28;20168;-78
2020/12/31 00:11:23;;;;;;;17.27;15.73;;;;;;;2.61;85.10;99281.81;5054203;28;20908;-78
2020/12/31 00:13:49;;;;;;;16.73;15.33;;;;;;;2.49;85.26;99278.72;5054273;28;20189;-77
2020/12/31 00:16:14;;;;;;;17.90;16.37;;;;;;;2.35;85.88;99273.22;5053883;28;20638;-78
2020/12/31 00:18:40;;;;;;;17.77;16.10;;;;;;;2.45;85.89;99279.56;5054189;28;20207;-78
2020/12/31 00:21:05;;;;;;;19.80;15.40;;;;;;;2.41;85.56;99276.63;5054053;28;20217;-78
2020/12/31 00:23:30;;;;;;;16.90;15.20;;;;;;;2.56;85.05;99281.06;5054073;28;20175;-79
2020/12/31 00:25:56;;;;;;;16.47;15.07;;;;;;;2.45;85.16;99284.94;5053899;28;20229;-79
2020/12/31 00:28:22;;;;;;;15.93;14.53;;;;;;;2.32;85.24;99287.25;5054070;28;20217;-78
2020/12/31 00:30:48;;;;;;;15.07;13.40;;;;;;;2.41;84.73;99289.31;5053518;28;20189;-77
2020/12/31 00:33:20;;;;;;;12.70;10.83;;;;;;;2.40;84.52;99283.13;5052315;28;20422;-78
2020/12/31 00:35:50;;;;;;;15.30;14.00;;;;;;;2.35;84.82;99292.06;5053612;28;20429;-78
2020/12/31 00:38:16;;;;;;;15.23;13.83;;;;;;;2.38;85.37;99293.38;5053624;28;20273;-79
2020/12/31 00:40:41;;;;;;;14.93;13.63;;;;;;;2.43;84.99;99290.63;5053476;28;20536;-78
2020/12/31 00:43:07;;;;;;;14.17;13.03;;;;;;;2.42;85.37;99299.00;5053367;28;20267;-77
2020/12/31 00:45:32;;;;;;;14.87;13.50;;;;;;;2.42;85.06;99289.03;5053371;28;20186;-77
2020/12/31 00:47:57;;;;;;;13.40;12.23;;;;;;;2.58;85.21;99295.03;5053346;28;20266;-76
2020/12/31 00:50:23;;;;;;;13.57;12.47;;;;;;;2.66;85.05;99295.22;5053368;28;20175;-78
2020/12/31 00:52:49;;;;;;;13.43;12.33;;;;;;;2.66;84.53;99295.22;5053280;28;20643;-78
2020/12/31 00:55:15;;;;;;;13.03;11.67;;;;;;;2.59;84.47;99288.56;5053230;28;20689;-79
2020/12/31 00:57:40;;;;;;;13.20;12.30;;;;;;;2.58;85.10;99292.34;5052809;28;20457;-78
2020/12/31 01:00:06;;;;;;;13.57;11.90;;;;;;;2.65;85.31;99287.44;5052965;28;20183;-78
2020/12/31 01:02:31;;;;;;;14.33;12.83;;;;;;;2.59;84.60;99291.25;5052955;28;20294;-79
2020/12/31 01:04:57;;;;;;;12.57;11.53;;;;;;;2.57;84.69;99288.84;5053026;28;20183;-76
2020/12/31 01:07:22;;;;;;;13.03;11.83;;;;;;;2.57;84.80;99298.84;5052825;28;20184;-77
2020/12/31 01:09:47;;;;;;;12.07;11.13;;;;;;;2.55;84.71;99290.25;5052999;28;20537;-77
2020/12/31 01:12:13;;;;;;;11.97;10.80;;;;;;;2.52;84.86;99293.50;5052928;28;20655;-78
2020/12/31 01:14:38;;;;;;;11.17;10.27;;;;;;;2.44;84.37;99292.22;5052672;28;20710;-79
2020/12/31 01:17:04;;;;;;;10.97;9.97;;;;;;;2.50;84.42;99298.38;5052647;28;20175;-78
2020/12/31 01:19:30;;;;;;;10.37;9.57;;;;;;;2.55;83.79;99298.31;5051411;28;20229;-76
2020/12/31 01:21:55;;;;;;;10.13;9.23;;;;;;;2.48;83.65;99298.69;5051989;28;20832;-78
2020/12/31 01:24:20;;;;;;;9.97;9.00;;;;;;;2.36;84.04;99298.25;5052627;28;20175;-77
2020/12/31 01:26:46;;;;;;;11.13;10.23;;;;;;;2.31;83.89;99301.78;5052405;28;20523;-77
2020/12/31 01:29:11;;;;;;;11.53;10.43;;;;;;;2.27;84.24;99303.47;5052738;28;20572;-79
2020/12/31 01:31:37;;;;;;;10.27;9.43;;;;;;;2.32;83.66;99298.03;5052554;28;20547;-79
2020/12/31 01:34:02;;;;;;;11.07;10.17;;;;;;;2.30;84.02;99307.47;5052566;28;20635;-78
2020/12/31 01:36:31;;;;;;;10.77;9.87;;;;;;;2.19;84.55;99306.00;5052258;28;20179;-78
2020/12/31 01:38:56;;;;;;;10.27;9.37;;;;;;;2.27;84.56;99298.06;5052400;28;20179;-78
2020/12/31 01:41:25;;;;;;;10.23;9.33;;;;;;;2.35;84.01;99307.44;5052236;28;20199;-78
2020/12/31 01:44:04;;;;;;;10.43;9.50;;;;;;;2.15;84.19;99297.66;5052546;28;20379;-77
2020/12/31 01:46:32;;;;;;;10.80;9.80;;;;;;;2.26;83.50;99296.47;5052266;28;20716;-78
2020/12/31 01:48:57;;;;;;;9.60;8.80;;;;;;;2.30;84.02;99296.69;5052247;28;20418;-78
2020/12/31 01:51:24;;;;;;;10.37;9.43;;;;;;;2.27;83.99;99302.66;5052213;28;20542;-78
2020/12/31 01:53:56;;;;;;;9.37;8.50;;;;;;;2.26;83.63;99293.78;5052097;28;20178;-78
2020/12/31 01:56:24;;;;;;;8.37;7.77;;;;;;;2.24;83.75;99295.16;5050618;28;20423;-78
2020/12/31 01:58:49;;;;;;;9.63;8.83;;;;;;;2.25;84.24;99302.94;5053192;28;21003;-78
2020/12/31 02:01:15;;;;;;;10.23;9.30;;;;;;;2.28;83.75;99299.69;5053634;28;20800;-78
2020/12/31 02:03:40;;;;;;;9.90;9.10;;;;;;;2.19;84.50;99297.91;5071873;28;20181;-78
2020/12/31 02:06:05;;;;;;;9.33;8.63;;;;;;;2.27;84.04;99300.75;5072043;28;20194;-78
2020/12/31 02:08:31;;;;;;;10.20;9.20;;;;;;;2.12;83.93;99302.81;5054329;28;20175;-78
2020/12/31 02:10:56;;;;;;;10.10;9.30;;;;;;;2.08;83.88;99294.50;5068526;28;20570;-78
2020/12/31 02:13:21;;;;;;;10.43;9.60;;;;;;;2.17;84.13;99295.50;5072111;28;20341;-78
2020/12/31 02:15:47;;;;;;;10.17;9.27;;;;;;;2.17;83.74;99291.97;5071952;28;20603;-77
2020/12/31 02:18:13;;;;;;;11.40;10.40;;;;;;;2.17;83.55;99283.88;5071239;28;20202;-78
2020/12/31 02:20:38;;;;;;;10.67;9.83;;;;;;;1.99;83.84;99293.50;5071512;28;20279;-78
2020/12/31 02:23:03;;;;;;;10.47;9.50;;;;;;;2.16;83.31;99296.56;5071562;28;20171;-77
2020/12/31 02:25:29;;;;;;;11.07;10.07;;;;;;;1.83;84.03;99298.19;5071264;28;20641;-77
2020/12/31 02:27:54;;;;;;;9.90;9.17;;;;;;;2.01;83.55;99296.69;5071305;28;20170;-78
2020/12/31 02:30:19;;;;;;;9.67;8.87;;;;;;;2.04;83.31;99290.78;5071507;28;20171;-78
2020/12/31 02:32:45;;;;;;;10.27;9.47;;;;;;;1.94;82.79;99296.25;5071214;28;20174;-78
2020/12/31 02:35:10;;;;;;;8.80;8.10;;;;;;;1.72;82.69;99292.09;5071644;28;20182;-77
2020/12/31 02:37:36;;;;;;;8.77;7.97;;;;;;;1.75;82.94;99291.56;5071037;28;20170;-77
2020/12/31 02:40:01;;;;;;;8.03;7.43;;;;;;;1.60;82.88;99291.66;5071001;28;20171;-77
2020/12/31 02:42:26;;;;;;;8.97;8.27;;;;;;;1.53;83.41;99293.06;5071372;28;20210;-78
2020/12/31 02:44:52;;;;;;;8.80;8.00;;;;;;;1.44;83.62;99285.56;5069734;28;20265;-78
2020/12/31 02:47:17;;;;;;;8.83;8.03;;;;;;;1.35;84.34;99295.34;5070765;28;20178;-77
2020/12/31 02:49:42;;;;;;;8.03;7.33;;;;;;;1.19;84.61;99281.16;5071083;28;20175;-77
2020/12/31 02:52:08;;;;;;;7.93;7.13;;;;;;;1.14;84.99;99288.44;5071150;28;20193;-77
2020/12/31 02:54:33;;;;;;;8.03;7.43;;;;;;;1.13;84.89;99287.66;5070904;28;20536;-76
2020/12/31 02:56:58;;;;;;;8.07;7.37;;;;;;;1.15;85.07;99290.84;5069547;28;20804;-77
2020/12/31 02:59:24;;;;;;;7.87;7.07;;;;;;;1.10;85.11;99293.59;5071031;28;20546;-77
2020/12/31 03:01:53;;;;;;;8.43;7.73;;;;;;;0.95;85.83;99290.97;5071216;28;20238;-78
2020/12/31 03:04:18;;;;;;;8.07;7.43;;;;;;;0.72;86.81;99295.09;5070890;28;20236;-78
2020/12/31 03:06:43;;;;;;;7.67;7.03;;;;;;;0.79;86.04;99300.19;5069784;28;20429;-77
2020/12/31 03:09:08;;;;;;;7.37;6.40;;;;;;;0.82;86.22;99294.25;5070175;28;20310;-77
2020/12/31 03:11:34;;;;;;;7.13;6.43;;;;;;;0.86;86.03;99293.41;5051536;28;20270;-77
2020/12/31 03:13:59;;;;;;;7.00;6.30;;;;;;;0.96;85.88;99297.16;5050857;28;20233;-78
2020/12/31 03:16:24;;;;;;;6.50;5.83;;;;;;;1.00;85.35;99288.25;5050886;28;20584;-78
2020/12/31 03:18:50;;;;;;;6.27;5.77;;;;;;;1.12;85.28;99283.34;5050614;28;20704;-77
2020/12/31 03:21:16;;;;;;;5.83;5.33;;;;;;;1.24;84.87;99287.59;5050708;28;20205;-78
2020/12/31 03:23:41;;;;;;;5.27;4.77;;;;;;;1.35;84.37;99289.16;5050468;28;20175;-78
2020/12/31 03:26:06;;;;;;;5.33;4.93;;;;;;;1.39;83.70;99282.91;5050614;28;20787;-77
2020/12/31 03:28:32;;;;;;;3.80;3.43;;;;;;;1.46;83.51;99282.63;5050823;28;20181;-76
2020/12/31 03:30:58;;;;;;;6.00;5.40;;;;;;;1.53;83.36;99269.63;5049430;28;20552;-78
2020/12/31 03:33:23;;;;;;;6.30;5.80;;;;;;;1.51;83.04;99282.56;5050653;28;20174;-78
2020/12/31 03:35:50;;;;;;;5.17;4.67;;;;;;;1.55;83.08;99272.84;5050484;28;20215;-77
2020/12/31 03:38:18;;;;;;;5.33;4.93;;;;;;;1.57;82.95;99275.25;5050450;28;20178;-79
2020/12/31 03:40:43;;;;;;;5.40;4.90;;;;;;;1.55;82.95;99272.84;5050749;28;20499;-78
2020/12/31 03:43:09;;;;;;;5.40;5.00;;;;;;;1.55;83.33;99270.16;5049210;28;20457;-78
2020/12/31 03:45:35;;;;;;;5.80;5.30;;;;;;;1.57;82.98;99261.78;5049901;28;20175;-77
2020/12/31 03:48:02;;;;;;;6.47;5.87;;;;;;;1.54;83.08;99255.09;5050217;28;20214;-76
2020/12/31 03:50:27;;;;;;;6.07;5.47;;;;;;;1.50;83.48;99259.44;5050376;28;20430;-78
2020/12/31 03:52:53;;;;;;;6.27;5.77;;;;;;;1.61;82.89;99260.16;5050451;28;20475;-77
2020/12/31 03:55:18;;;;;;;5.60;5.20;;;;;;;1.62;82.85;99259.09;5050411;28;20196;-78
2020/12/31 03:57:44;;;;;;;4.97;4.47;;;;;;;1.59;82.83;99252.38;5050415;28;20179;-78
2020/12/31 04:00:10;;;;;;;5.87;5.37;;;;;;;1.59;83.09;99255.06;5049126;28;20185;-76
2020/12/31 04:02:35;;;;;;;6.23;5.63;;;;;;;1.62;82.77;99257.19;5050388;28;20306;-76
2020/12/31 04:05:01;;;;;;;4.37;3.97;;;;;;;1.61;82.75;99246.72;5049146;28;20877;-78
2020/12/31 04:07:26;;;;;;;5.50;5.03;;;;;;;1.61;83.17;99252.91;5050221;28;20738;-78
2020/12/31 04:09:51;;;;;;;5.00;4.60;;;;;;;1.59;82.84;99255.06;5051974;28;20640;-77
2020/12/31 04:12:17;;;;;;;3.00;2.80;;;;;;;1.59;83.25;99243.47;5057397;28;20635;-77
2020/12/31 04:14:43;;;;;;;4.90;3.80;;;;;;;1.60;83.15;99245.91;5051467;28;20537;-78
2020/12/31 04:17:08;;;;;;;3.60;3.30;;;;;;;1.61;83.16;99247.50;5050915;28;20488;-78
2020/12/31 04:19:34;;;;;;;3.00;2.80;;;;;;;1.63;83.01;99255.31;5050188;28;20183;-78
2020/12/31 04:21:59;;;;;;;2.23;1.80;;;;;;;1.65;82.78;99250.44;5050019;28;20235;-78
2020/12/31 04:24:25;;;;;;;5.00;4.50;;;;;;;1.70;82.82;99256.56;5049972;28;20182;-78
2020/12/31 04:26:51;;;;;;;3.07;2.53;;;;;;;1.69;83.04;99257.66;5050531;28;20254;-78
2020/12/31 04:29:16;;;;;;;3.33;2.97;;;;;;;1.73;82.84;99260.59;5050241;28;20217;-78
2020/12/31 04:31:42;;;;;;;5.87;5.37;;;;;;;1.74;82.80;99254.94;5050002;28;20418;-78
2020/12/31 04:34:07;;;;;;;5.13;4.73;;;;;;;1.75;82.80;99247.66;5049968;28;20523;-77
2020/12/31 04:36:33;;;;;;;6.77;6.17;;;;;;;1.73;82.83;99252.50;5049530;28;20175;-77
2020/12/31 04:38:58;;;;;;;4.90;4.07;;;;;;;1.65;83.63;99240.47;5049983;28;20240;-78
2020/12/31 04:41:23;;;;;;;6.13;5.53;;;;;;;1.71;83.48;99247.41;5048368;28;20674;-77
2020/12/31 04:43:49;;;;;;;7.13;6.03;;;;;;;1.74;83.24;99240.69;5049760;28;20171;-78
2020/12/31 04:46:21;;;;;;;5.27;4.77;;;;;;;1.72;83.18;99243.63;5049565;28;20172;-77
2020/12/31 04:48:55;;;;;;;6.60;6.10;;;;;;;1.56;83.89;99247.53;5050103;28;20455;-77
2020/12/31 04:51:24;;;;;;;6.73;6.13;;;;;;;1.62;84.14;99241.03;5050316;28;20513;-77
2020/12/31 04:53:50;;;;;;;16.27;12.87;;;;;;;1.66;83.80;99244.78;5049833;28;20417;-77
2020/12/31 04:56:18;;;;;;;7.27;6.67;;;;;;;1.73;83.71;99247.94;5049192;28;20827;-78
2020/12/31 04:58:44;;;;;;;6.20;5.70;;;;;;;1.76;83.40;99255.47;5053327;28;20180;-77
2020/12/31 05:01:09;;;;;;;14.07;10.77;;;;;;;1.76;83.11;99254.66;5053484;28;20536;-78
2020/12/31 05:03:34;;;;;;;7.53;6.80;;;;;;;1.73;83.35;99247.13;5053113;28;20175;-77
2020/12/31 05:06:03;;;;;;;6.70;6.10;;;;;;;1.70;83.58;99243.13;5052957;28;20175;-78
2020/12/31 05:08:29;;;;;;;7.10;6.60;;;;;;;1.72;83.63;99251.72;5053160;28;20178;-76
2020/12/31 05:10:57;;;;;;;9.97;9.07;;;;;;;1.68;83.47;99250.66;5053199;28;20423;-78
2020/12/31 05:13:23;;;;;;;23.97;21.83;;;;;;;1.62;83.92;99249.13;5052966;28;20446;-77
2020/12/31 05:15:48;;;;;;;7.77;7.17;;;;;;;1.71;83.65;99247.41;5052798;28;20465;-77
2020/12/31 05:18:18;;;;;;;7.00;6.40;;;;;;;1.74;83.79;99259.53;5051200;28;20179;-78
2020/12/31 05:20:46;;;;;;;5.83;5.23;;;;;;;1.71;83.83;99258.19;5052707;28;20417;-77
2020/12/31 05:23:12;;;;;;;8.00;6.77;;;;;;;1.74;83.52;99265.72;5052964;28;20444;-78
2020/12/31 05:25:38;;;;;;;7.03;6.43;;;;;;;1.75;83.48;99264.63;5052702;28;20830;-78
2020/12/31 05:28:20;;;;;;;7.13;6.53;;;;;;;1.71;83.63;99262.75;5052618;28;20689;-78
2020/12/31 05:30:48;;;;;;;6.40;5.77;;;;;;;1.75;83.54;99267.31;5052615;28;20675;-78
2020/12/31 05:33:29;;;;;;;7.67;7.03;;;;;;;1.77;83.60;99275.91;5052585;28;20414;-77
2020/12/31 05:36:26;;;;;;;7.47;6.80;;;;;;;1.76;83.66;99257.34;5052591;28;20500;-77
2020/12/31 05:39:00;;;;;;;7.47;6.80;;;;;;;1.70;83.76;99270.03;5052728;28;20414;-79
2020/12/31 05:41:36;;;;;;;8.00;7.40;;;;;;;1.77;83.60;99265.16;5052530;28;20497;-77
2020/12/31 05:44:07;;;;;;;7.57;6.97;;;;;;;1.82;83.60;99271.56;5052717;28;20445;-79
2020/12/31 05:46:34;;;;;;;7.63;6.93;;;;;;;1.81;83.53;99270.75;5052280;28;20417;-78
2020/12/31 05:49:02;;;;;;;7.77;7.10;;;;;;;1.81;83.82;99264.56;5052961;28;20951;-78
2020/12/31 05:51:31;;;;;;;7.23;6.60;;;;;;;1.77;83.79;99272.41;5052518;28;20413;-76
2020/12/31 05:54:14;;;;;;;8.30;7.57;;;;;;;1.72;83.80;99265.16;5052417;28;20444;-77
2020/12/31 05:56:43;;;;;;;6.10;5.60;;;;;;;1.73;83.87;99268.66;5050876;28;20448;-78
2020/12/31 05:59:26;;;;;;;6.53;6.03;;;;;;;1.71;84.23;99276.22;5052236;28;20508;-77
2020/12/31 06:01:57;;;;;;;8.30;7.60;;;;;;;1.68;84.44;99272.22;5052030;28;20825;-78
2020/12/31 06:04:28;;;;;;;7.07;6.37;;;;;;;1.68;84.29;99274.09;5051976;28;20948;-77
2020/12/31 06:06:58;;;;;;;7.57;6.80;;;;;;;1.68;84.23;99263.34;5051287;28;20778;-77
2020/12/31 06:09:34;;;;;;;8.63;7.83;;;;;;;1.70;84.42;99271.91;5051996;28;20963;-76
2020/12/31 06:12:08;;;;;;;8.00;7.30;;;;;;;1.69;84.60;99273.81;5055549;28;20463;-76
2020/12/31 06:14:35;;;;;;;8.20;7.50;;;;;;;1.68;84.65;99271.41;5071565;28;20507;-77
2020/12/31 06:17:06;;;;;;;7.20;6.53;;;;;;;1.64;84.57;99267.69;5071539;28;20512;-77
2020/12/31 06:19:38;;;;;;;7.80;7.10;;;;;;;1.67;84.87;99276.00;5071548;28;20428;-76
2020/12/31 06:22:06;;;;;;;8.07;7.43;;;;;;;1.68;84.91;99266.81;5071764;28;20468;-78
2020/12/31 06:24:37;;;;;;;8.30;7.60;;;;;;;1.71;84.69;99268.16;5071583;28;20429;-77
2020/12/31 06:27:09;;;;;;;9.80;8.80;;;;;;;1.71;85.00;99265.44;5071280;28;20439;-78
2020/12/31 06:29:43;;;;;;;7.47;6.77;;;;;;;1.74;84.57;99268.41;5071954;28;20449;-77
2020/12/31 06:32:16;;;;;;;9.20;8.37;;;;;;;1.76;84.45;99271.63;5071730;28;20428;-77
2020/12/31 06:34:42;;;;;;;8.47;7.67;;;;;;;1.76;84.45;99268.91;5071371;28;20409;-76
2020/12/31 06:37:09;;;;;;;8.70;7.90;;;;;;;1.76;84.29;99257.34;5071053;28;20794;-77
2020/12/31 06:39:35;;;;;;;8.47;7.77;;;;;;;1.77;84.17;99272.41;5071104;28;20174;-78
2020/12/31 06:42:00;;;;;;;8.97;8.20;;;;;;;1.78;83.73;99271.34;5071215;28;20474;-76
2020/12/31 06:44:32;;;;;;;8.47;7.67;;;;;;;1.80;84.09;99271.84;5070214;28;20174;-76
2020/12/31 06:46:58;;;;;;;8.30;7.60;;;;;;;1.82;84.44;99268.88;5070906;28;20183;-78
2020/12/31 06:49:54;;;;;;;9.80;8.97;;;;;;;1.79;84.14;99276.44;5069631;28;20427;-76
2020/12/31 06:52:21;;;;;;;9.30;8.50;;;;;;;1.83;84.11;99278.56;5069733;28;20340;-78
2020/12/31 06:54:47;;;;;;;9.00;8.17;;;;;;;1.90;83.96;99274.47;5070926;28;20512;-78
2020/12/31 06:57:32;;;;;;;8.70;8.00;;;;;;;1.89;83.91;99283.63;5070659;28;20956;-78
2020/12/31 06:59:58;;;;;;;10.00;9.03;;;;;;;1.89;83.48;99277.44;5070713;28;20190;-76
2020/12/31 07:02:23;;;;;;;8.60;7.70;;;;;;;1.90;83.72;99277.16;5069433;28;20472;-77
2020/12/31 07:04:49;;;;;;;9.30;8.30;;;;;;;1.91;83.76;99286.84;5070819;28;20163;-77
2020/12/31 07:07:20;;;;;;;10.03;9.23;;;;;;;1.84;83.91;99286.34;5070662;28;20171;-78
2020/12/31 07:09:56;;;;;;;9.83;9.03;;;;;;;1.79;84.00;99281.81;5070789;28;20386;-77
2020/12/31 07:12:45;;;;;;;10.00;9.10;;;;;;;1.76;84.16;99285.06;5070711;28;20451;-78
2020/12/31 07:15:13;;;;;;;9.17;8.47;;;;;;;1.79;84.29;99276.44;5070897;28;20412;-77
2020/12/31 07:17:46;;;;;;;9.07;8.37;;;;;;;1.85;83.89;99279.06;5070626;28;20424;-77
2020/12/31 07:20:18;;;;;;;8.60;7.93;;;;;;;1.89;83.60;99272.06;5068628;28;20832;-78
2020/12/31 07:22:47;;;;;;;10.10;8.97;;;;;;;1.90;83.82;99276.34;5069141;28;20547;-77
2020/12/31 07:25:17;;;;;;;9.80;9.00;;;;;;;1.78;84.31;99274.81;5070317;28;20483;-77
2020/12/31 07:27:47;;;;;;;9.70;9.00;;;;;;;1.86;83.99;99277.97;5070768;28;20412;-77
2020/12/31 07:30:17;;;;;;;9.13;8.43;;;;;;;1.90;83.67;99269.06;5070455;28;20417;-75
2020/12/31 07:33:09;;;;;;;4.90;4.50;;;;;;;1.93;83.53;99268.50;5070403;28;20863;-76
2020/12/31 07:35:34;;;;;;;11.98;11.13;;;;;;;1.98;83.57;99279.22;5069630;28;20455;-75
2020/12/31 07:38:11;;;;;;;10.27;9.47;;;;;;;2.02;83.08;99269.47;5070434;28;20198;-76
2020/12/31 07:40:48;;;;;;;4.30;3.90;;;;;;;1.98;83.01;99263.06;5070314;28;20342;-76
2020/12/31 07:43:23;;;;;;;9.57;8.77;;;;;;;1.99;83.10;99255.78;5070649;28;20507;-76
2020/12/31 07:46:03;;;;;;;11.47;10.57;;;;;;;1.97;83.63;99268.72;5070211;28;20420;-79
2020/12/31 07:48:29;;;;;;;7.43;6.73;;;;;;;2.01;83.09;99269.75;5070184;28;20404;-77
2020/12/31 07:51:07;;;;;;;8.10;7.40;;;;;;;2.03;82.99;99275.69;5070790;28;20460;-77
2020/12/31 07:53:35;;;;;;;9.83;8.93;;;;;;;2.02;82.70;99271.38;5070275;28;20817;-78
2020/12/31 07:56:00;;;;;;;9.07;8.33;;;;;;;2.06;82.56;99272.44;5068872;28;20508;-76
2020/12/31 07:58:29;;;;;;;7.30;6.60;;;;;;;2.07;83.03;99274.03;5064603;28;20977;-79
2020/12/31 08:01:04;;;;;;;15.00;12.20;;;;;;;2.06;82.98;99275.13;5057968;28;20198;-80
2020/12/31 08:03:30;;;;;;;7.83;7.13;;;;;;;2.05;83.37;99281.59;5070603;28;20494;-79
2020/12/31 08:05:56;;;;;;;8.53;7.90;;;;;;;2.12;82.50;99282.06;5070039;28;20892;-78
2020/12/31 08:08:22;;;;;;;8.30;7.63;;;;;;;2.15;82.50;99272.59;5069886;28;20178;-78
2020/12/31 08:10:47;;;;;;;4.97;4.53;;;;;;;2.17;82.30;99279.34;5070037;28;20444;-78
2020/12/31 08:13:16;;;;;;;3.67;3.37;;;;;;;2.18;82.16;99272.06;5069969;28;20661;-77
2020/12/31 08:15:41;;;;;;;5.50;4.73;;;;;;;2.17;82.08;99282.03;5070125;28;20167;-78
2020/12/31 08:18:07;;;;;;;5.73;5.10;;;;;;;2.18;82.18;99280.94;5069635;28;20415;-79
2020/12/31 08:20:37;;;;;;;3.90;3.60;;;;;;;2.21;82.02;99280.34;5070081;28;20171;-77
2020/12/31 08:23:03;;;;;;;10.40;9.50;;;;;;;2.24;81.88;99276.28;5070210;28;20640;-76
2020/12/31 08:25:41;;;;;;;9.37;8.67;;;;;;;2.26;81.67;99279.50;5070077;28;20443;-77
2020/12/31 08:28:07;;;;;;;10.30;9.40;;;;;;;2.25;82.31;99276.00;5069936;28;20503;-77
2020/12/31 08:30:34;;;;;;;7.07;6.33;;;;;;;2.26;82.21;99283.00;5071506;28;20420;-78
2020/12/31 08:33:02;;;;;;;6.20;5.73;;;;;;;2.31;81.69;99280.22;5073741;28;20431;-78
2020/12/31 08:35:29;;;;;;;6.13;5.63;;;;;;;2.34;81.61;99276.19;5073777;28;20448;-77
2020/12/31 08:38:09;;;;;;;6.30;5.80;;;;;;;2.34;81.29;99279.69;5073491;28;20419;-76
2020/12/31 08:40:41;;;;;;;5.53;5.03;;;;;;;2.37;81.18;99272.91;5073877;28;20470;-76
2020/12/31 08:43:22;;;;;;;6.27;5.70;;;;;;;2.38;81.12;99275.31;5073647;28;20500;-75
2020/12/31 08:45:49;;;;;;;9.23;8.53;;;;;;;2.43;81.30;99284.44;5073720;28;20419;-76
2020/12/31 08:48:21;;;;;;;4.20;3.80;;;;;;;2.45;80.57;99282.25;5073395;28;20975;-78
2020/12/31 08:51:05;;;;;;;4.50;4.20;;;;;;;2.48;81.03;99279.00;5073177;28;20405;-77
2020/12/31 08:53:32;;;;;;;8.30;7.60;;;;;;;2.49;81.03;99289.50;5073485;28;20409;-77
2020/12/31 08:55:58;;;;;;;5.23;4.80;;;;;;;2.52;80.92;99285.44;5073410;28;20443;-75
2020/12/31 08:58:28;;;;;;;8.37;7.67;;;;;;;2.56;80.64;99275.66;5073095;28;20535;-73
2020/12/31 09:00:54;;;;;;;7.40;6.60;;;;;;;2.57;80.70;99285.34;5070188;28;20209;-74
2020/12/31 09:03:19;;;;;;;4.13;3.80;;;;;;;2.58;79.94;99284.25;5064250;28;20452;-75
2020/12/31 09:05:55;;;;;;;8.43;7.73;;;;;;;2.61;80.39;99289.09;5072434;28;20638;-74
2020/12/31 09:08:21;;;;;;;6.30;5.80;;;;;;;2.60;80.41;99282.91;5070956;28;20186;-73
2020/12/31 09:10:46;;;;;;;7.27;6.63;;;;;;;2.60;80.57;99282.91;5064156;28;20515;-74
2020/12/31 09:13:19;;;;;;;9.03;8.33;;;;;;;2.62;80.57;99288.81;5064181;28;20174;-75
2020/12/31 09:15:44;;;;;;;9.53;8.83;;;;;;;2.66;80.33;99291.72;5072889;28;20182;-76
2020/12/31 09:18:17;;;;;;;9.03;8.33;;;;;;;2.66;80.72;99291.72;5072726;28;20424;-75
2020/12/31 09:20:43;;;;;;;9.73;9.13;;;;;;;2.61;81.04;99291.81;5072952;28;20223;-77
2020/12/31 09:23:10;;;;;;;9.33;8.53;;;;;;;2.71;80.78;99283.56;5072950;28;20417;-74
2020/12/31 09:25:48;;;;;;;8.97;8.17;;;;;;;2.78;80.93;99281.34;5072915;28;20170;-75
2020/12/31 09:28:14;;;;;;;8.57;7.87;;;;;;;2.77;79.70;99282.44;5072849;28;20965;-76
2020/12/31 09:30:39;;;;;;;6.50;5.90;;;;;;;2.79;80.14;99287.53;5072739;28;20484;-72
2020/12/31 09:33:04;;;;;;;8.27;7.67;;;;;;;2.77;79.76;99279.75;5072892;28;20178;-76
2020/12/31 09:35:30;;;;;;;9.00;8.30;;;;;;;2.81;79.77;99279.97;5072650;28;20341;-75
2020/12/31 09:37:57;;;;;;;8.60;7.80;;;;;;;2.82;81.00;99287.75;5072674;28;20201;-75
2020/12/31 09:40:23;;;;;;;9.23;8.53;;;;;;;2.82;79.67;99285.06;5072996;28;20178;-76
2020/12/31 09:42:49;;;;;;;10.13;9.33;;;;;;;2.86;79.73;99291.47;5071785;28;20498;-75
2020/12/31 09:45:14;;;;;;;10.03;9.23;;;;;;;2.86;80.63;99291.47;5072594;28;20549;-76
2020/12/31 09:47:40;;;;;;;9.00;8.33;;;;;;;2.89;80.84;99285.53;5072318;28;20217;-74
2020/12/31 09:50:09;;;;;;;8.73;7.97;;;;;;;2.99;80.06;99287.28;5071053;28;20645;-75
2020/12/31 09:52:35;;;;;;;8.20;7.53;;;;;;;2.99;79.47;99288.06;5072548;28;20228;-74
2020/12/31 09:55:00;;;;;;;9.63;8.90;;;;;;;3.04;79.86;99294.50;5071032;28;20515;-75
2020/12/31 09:57:25;;;;;;;9.27;8.57;;;;;;;2.97;79.83;99292.97;5072287;28;20640;-76
2020/12/31 09:59:51;;;;;;;9.13;8.33;;;;;;;3.04;80.57;99286.41;5072693;28;20302;-77
2020/12/31 10:02:16;;;;;;;8.90;8.20;;;;;;;3.11;79.77;99284.97;5072334;28;20589;-75
2020/12/31 10:04:42;;;;;;;7.97;7.37;;;;;;;3.12;79.17;99286.56;5072183;28;20618;-76
2020/12/31 10:07:07;;;;;;;7.20;5.47;;;;;;;3.10;79.42;99285.25;5070863;28;20186;-77
2020/12/31 10:09:33;;;;;;;8.10;7.40;;;;;;;3.08;79.04;99290.94;5072155;28;20236;-77
2020/12/31 10:11:58;;;;;;;7.03;6.43;;;;;;;3.12;79.28;99288.47;5069957;28;20179;-76
2020/12/31 10:14:23;;;;;;;8.33;7.63;;;;;;;3.10;79.08;99288.75;5067262;28;20189;-76
2020/12/31 10:16:50;;;;;;;8.00;7.40;;;;;;;3.17;79.46;99282.97;5070675;28;20228;-76
2020/12/31 10:19:16;;;;;;;2.63;2.43;;;;;;;3.17;78.86;99291.06;5069479;28;20191;-76
2020/12/31 10:21:45;;;;;;;8.77;8.07;;;;;;;3.14;79.03;99287.06;5066150;28;20510;-75
2020/12/31 10:24:10;;;;;;;8.90;8.10;;;;;;;3.17;78.90;99280.28;5072007;28;20859;-77
2020/12/31 10:26:36;;;;;;;5.30;4.90;;;;;;;3.20;79.34;99285.13;5071875;28;20417;-76
2020/12/31 10:29:01;;;;;;;7.07;6.37;;;;;;;3.19;78.43;99280.81;5073527;28;20220;-74
2020/12/31 10:31:27;;;;;;;6.53;5.93;;;;;;;3.18;78.54;99274.63;5080874;28;20443;-77
2020/12/31 10:33:52;;;;;;;7.03;6.53;;;;;;;3.20;78.97;99274.31;5073669;28;20177;-76
2020/12/31 10:36:17;;;;;;;4.60;4.20;;;;;;;3.19;78.12;99268.13;5071687;28;20178;-76
2020/12/31 10:38:43;;;;;;;3.77;3.50;;;;;;;3.19;78.48;99265.44;5071792;28;20465;-76
2020/12/31 10:41:12;;;;;;;5.50;4.77;;;;;;;3.19;78.31;99272.72;5071909;28;20205;-76
2020/12/31 10:43:37;;;;;;;4.20;3.87;;;;;;;3.17;78.58;99262.19;5070724;28;20185;-77
2020/12/31 10:46:02;;;;;;;6.47;5.97;;;;;;;3.19;78.63;99261.94;5071488;28;20417;-76
2020/12/31 10:48:28;;;;;;;4.80;4.30;;;;;;;3.21;78.68;99268.63;5071572;28;20187;-76
2020/12/31 10:50:58;;;;;;;2.17;2.07;;;;;;;3.24;78.15;99267.25;5067260;28;20247;-74
2020/12/31 10:53:23;;;;;;;4.50;4.10;;;;;;;3.22;77.45;99256.75;5051647;28;20248;-73
2020/12/31 10:55:48;;;;;;;3.47;3.17;;;;;;;3.26;78.38;99254.25;5061709;28;20957;-75
2020/12/31 10:58:13;;;;;;;5.00;4.57;;;;;;;3.32;77.86;99260.38;5061631;28;20186;-74
2020/12/31 11:00:39;;;;;;;1.23;1.17;;;;;;;3.32;77.69;99266.56;5061986;28;20186;-76
2020/12/31 11:03:04;;;;;;;4.80;4.40;;;;;;;3.29;77.23;99259.88;5069780;28;20186;-74
2020/12/31 11:05:29;;;;;;;2.80;2.60;;;;;;;3.34;77.27;99253.63;5070922;28;20200;-75
2020/12/31 11:07:55;;;;;;;3.37;3.07;;;;;;;3.37;77.41;99254.91;5070678;28;20717;-75
2020/12/31 11:10:20;;;;;;;5.67;3.30;;;;;;;3.37;76.92;99254.91;5069504;28;20197;-74
2020/12/31 11:12:45;;;;;;;2.63;2.43;;;;;;;3.38;76.82;99254.63;5070737;28;20174;-73
2020/12/31 11:15:11;;;;;;;3.03;2.73;;;;;;;3.38;76.23;99246.53;5070767;28;20193;-74
2020/12/31 11:17:37;;;;;;;3.23;1.93;;;;;;;3.38;76.03;99257.31;5070461;28;20178;-73
2020/12/31 11:20:03;;;;;;;1.13;1.07;;;;;;;3.40;76.63;99249.72;5068604;28;20286;-76
2020/12/31 11:22:28;;;;;;;1.03;1.03;;;;;;;3.40;76.69;99241.63;5066301;28;20207;-77
2020/12/31 11:24:54;;;;;;;4.07;3.67;;;;;;;3.41;76.65;99245.94;5050703;28;20203;-75
2020/12/31 11:27:19;;;;;;;5.87;5.37;;;;;;;3.43;76.71;99241.03;5061451;28;20684;-74
2020/12/31 11:29:44;;;;;;;2.57;1.67;;;;;;;3.40;75.87;99238.94;5070504;28;20178;-74
2020/12/31 11:32:10;;;;;;;3.60;3.23;;;;;;;3.41;76.12;99231.63;5069238;28;20444;-74
2020/12/31 11:34:35;;;;;;;1.83;1.73;;;;;;;3.44;75.49;99231.84;5070242;28;20289;-75
2020/12/31 11:37:03;;;;;;;3.53;3.23;;;;;;;3.50;75.46;99227.19;5070275;28;20265;-75
2020/12/31 11:39:29;;;;;;;3.87;3.47;;;;;;;3.56;75.35;99226.78;5064108;28;20175;-75
2020/12/31 11:41:56;;;;;;;3.40;2.53;;;;;;;3.57;74.84;99224.88;5050444;28;20282;-75